Time;durP1;ratioP1;P1;durP2;ratioP2;P2;SDS_P1;SDS_P2;PMS_P1;PMS_P2;Temp;Humidity;BMP_temperature;BMP_pressure;BME280_temperature;BME280_humidity;BME280_pressure;Samples;Min_cycle;Max_cycle;Signal;HPM_P1;HPM_P2
2022/03/02 00:01:40;;;;;;;15.88;10.05;;;;;;;0.59;55.17;100957.66;10377716;28;20096;-69
2022/03/02 00:06:42;;;;;;;19.92;9.95;;;;;;;0.39;55.37;100946.56;10377337;28;20087;-69
2022/03/02 00:11:44;;;;;;;17.33;10.18;;;;;;;0.37;55.72;100945.72;10381772;28;20176;-69
2022/03/02 00:16:46;;;;;;;21.10;10.25;;;;;;;0.30;55.83;100939.72;10382468;28;20530;-69
2022/03/02 00:21:47;;;;;;;19.42;10.02;;;;;;;0.23;55.83;100937.16;10383085;28;20148;-69
2022/03/02 00:26:49;;;;;;;18.90;10.70;;;;;;;0.05;55.86;100930.34;10381600;28;20296;-69
2022/03/02 00:31:52;;;;;;;19.02;10.52;;;;;;;0.00;56.20;100924.34;10380672;28;20493;-69
2022/03/02 00:36:56;;;;;;;20.08;11.48;;;;;;;-0.17;56.36;100917.50;10378312;28;20049;-69
2022/03/02 00:41:58;;;;;;;21.30;11.52;;;;;;;-0.24;56.73;100921.78;10382190;28;20041;-69
2022/03/02 00:47:00;;;;;;;17.92;11.00;;;;;;;-0.20;56.81;100910.66;10381496;28;20110;-69
2022/03/02 00:52:06;;;;;;;19.60;11.15;;;;;;;-0.06;56.80;100911.47;10385842;28;20053;-69
2022/03/02 00:57:08;;;;;;;18.50;10.68;;;;;;;0.05;57.00;100914.91;10383861;28;20057;-69
2022/03/02 01:02:10;;;;;;;18.25;10.95;;;;;;;0.32;56.58;100914.00;10388442;28;20049;-69
2022/03/02 01:07:12;;;;;;;18.75;10.52;;;;;;;0.49;56.44;100907.94;10389183;28;20139;-69
2022/03/02 01:12:14;;;;;;;21.67;12.25;;;;;;;0.44;56.48;100909.66;10389809;28;20056;-69
2022/03/02 01:17:17;;;;;;;18.33;10.70;;;;;;;0.51;56.42;100905.34;10388656;28;20053;-69
2022/03/02 01:22:19;;;;;;;19.50;10.32;;;;;;;0.53;56.14;100899.34;10389670;28;20058;-69
2022/03/02 01:27:22;;;;;;;21.60;10.65;;;;;;;0.69;55.99;100894.97;10383717;28;20051;-69
2022/03/02 01:32:23;;;;;;;17.40;10.52;;;;;;;0.84;55.76;100882.03;10388138;28;20140;-69
2022/03/02 01:37:25;;;;;;;16.10;9.85;;;;;;;0.96;55.50;100873.38;10387613;28;20514;-68
2022/03/02 01:42:27;;;;;;;19.55;11.15;;;;;;;0.95;55.25;100867.38;10388175;28;20069;-68
2022/03/02 01:47:29;;;;;;;20.50;11.57;;;;;;;1.00;55.15;100859.63;10387938;28;20048;-69
2022/03/02 01:52:30;;;;;;;19.40;11.07;;;;;;;0.80;54.96;100851.16;10386609;28;20053;-68
2022/03/02 01:57:32;;;;;;;19.90;10.15;;;;;;;0.42;55.47;100848.78;10383280;28;20068;-69
2022/03/02 02:02:35;;;;;;;16.88;10.40;;;;;;;0.28;56.11;100855.69;10385419;28;20508;-69
2022/03/02 02:07:37;;;;;;;16.50;10.15;;;;;;;0.26;56.45;100847.97;10386415;28;20313;-69
2022/03/02 02:12:39;;;;;;;21.13;11.38;;;;;;;0.33;56.15;100841.94;10369839;28;20046;-68
2022/03/02 02:17:41;;;;;;;25.17;12.90;;;;;;;0.28;56.31;100841.09;10386965;28;20140;-69
2022/03/02 02:22:46;;;;;;;30.55;16.92;;;;;;;0.22;56.78;100835.16;10388169;28;20060;-69
2022/03/02 02:27:49;;;;;;;22.05;12.93;;;;;;;0.26;56.52;100827.38;10387631;28;20072;-68
2022/03/02 02:32:51;;;;;;;20.10;10.93;;;;;;;0.07;56.67;100830.03;10387475;28;20140;-69
2022/03/02 02:37:53;;;;;;;18.40;10.98;;;;;;;0.04;56.83;100823.19;10386559;28;20075;-68
2022/03/02 02:42:55;;;;;;;19.33;10.52;;;;;;;0.25;57.01;100822.25;10386914;28;20056;-68
2022/03/02 02:47:58;;;;;;;15.15;9.90;;;;;;;0.38;56.63;100822.19;10386700;28;20140;-69
2022/03/02 02:53:18;;;;;;;16.95;9.70;;;;;;;0.42;56.87;100812.75;10385947;28;20059;-69
2022/03/02 02:58:20;;;;;;;17.02;9.95;;;;;;;0.48;56.65;100807.59;10385704;28;20067;-68
2022/03/02 03:03:22;;;;;;;16.08;10.07;;;;;;;0.49;56.77;100804.13;10389862;28;20103;-69
2022/03/02 03:08:23;;;;;;;18.88;10.00;;;;;;;0.58;56.61;100804.09;10394078;28;20280;-68
2022/03/02 03:13:25;;;;;;;14.27;9.45;;;;;;;0.60;56.54;100806.66;10392191;28;20401;-69
2022/03/02 03:18:27;;;;;;;15.77;9.45;;;;;;;0.46;56.47;100796.44;10393244;28;20049;-69
2022/03/02 03:23:30;;;;;;;14.38;9.55;;;;;;;0.49;56.64;100794.69;10391947;28;20048;-69
2022/03/02 03:28:31;;;;;;;18.63;9.23;;;;;;;0.54;56.42;100792.94;10392886;28;20041;-69
2022/03/02 03:33:33;;;;;;;14.75;9.60;;;;;;;0.60;56.54;100781.78;10392756;28;20056;-69
2022/03/02 03:38:35;;;;;;;16.52;8.95;;;;;;;0.58;56.70;100768.06;10375506;28;20046;-68
2022/03/02 03:43:36;;;;;;;14.55;9.40;;;;;;;0.65;56.74;100767.13;10392339;28;20079;-68
2022/03/02 03:48:38;;;;;;;15.45;9.40;;;;;;;0.62;56.74;100756.88;10391957;28;20041;-69
2022/03/02 03:53:40;;;;;;;16.45;9.52;;;;;;;0.57;56.75;100755.19;10391960;28;20048;-69
2022/03/02 03:58:42;;;;;;;15.80;10.10;;;;;;;0.53;56.88;100749.19;10392819;28;20131;-69
2022/03/02 04:03:43;;;;;;;15.05;9.85;;;;;;;0.59;56.61;100749.16;10389456;28;20079;-69
2022/03/02 04:08:46;;;;;;;17.88;10.57;;;;;;;0.51;56.78;100751.78;10387096;28;20045;-69
2022/03/02 04:13:47;;;;;;;15.98;9.20;;;;;;;0.46;56.86;100748.38;10370305;28;20171;-68
2022/03/02 04:18:49;;;;;;;18.25;10.60;;;;;;;0.51;56.44;100756.06;10385266;28;20042;-69
2022/03/02 04:23:51;;;;;;;21.40;10.40;;;;;;;0.50;57.19;100749.25;10382686;28;20053;-68
2022/03/02 04:28:53;;;;;;;16.58;9.75;;;;;;;0.53;57.13;100754.34;10390789;28;20484;-70
2022/03/02 04:33:55;;;;;;;15.00;9.52;;;;;;;0.65;57.13;100748.28;10392178;28;20068;-68
2022/03/02 04:38:58;;;;;;;16.90;9.70;;;;;;;0.76;57.10;100739.63;10393638;28;20157;-68
2022/03/02 04:44:00;;;;;;;17.05;10.07;;;;;;;0.76;56.91;100742.19;10391588;28;20077;-69
2022/03/02 04:49:10;;;;;;;17.77;11.02;;;;;;;0.74;57.08;100741.34;10392015;28;20049;-68
2022/03/02 04:55:05;;;;;;;18.90;10.30;;;;;;;0.76;57.22;100747.34;10391980;28;20461;-68
2022/03/02 04:59:35;;;;;;;18.10;10.48;;;;;;;0.83;57.34;100748.16;10392438;28;20057;-69
2022/03/02 05:04:36;;;;;;;17.48;10.82;;;;;;;0.87;57.14;100748.09;10391761;28;20075;-68
2022/03/02 05:09:38;;;;;;;18.45;10.25;;;;;;;1.01;57.19;100748.03;10391334;28;20054;-68
2022/03/02 05:14:40;;;;;;;18.92;12.10;;;;;;;0.88;57.10;100739.53;10391805;28;20051;-68
2022/03/02 05:19:41;;;;;;;16.13;9.88;;;;;;;0.89;57.19;100748.94;10390715;28;20447;-68
2022/03/02 05:24:43;;;;;;;19.35;11.20;;;;;;;0.88;57.15;100742.09;10389583;28;20519;-68
2022/03/02 05:29:45;;;;;;;15.93;9.50;;;;;;;0.95;57.27;100750.66;10390962;28;20053;-68
2022/03/02 05:34:46;;;;;;;17.45;9.88;;;;;;;0.97;57.02;100752.31;10390417;28;20061;-68
2022/03/02 05:39:48;;;;;;;15.65;10.50;;;;;;;1.04;56.81;100748.84;10389526;28;20490;-68
2022/03/02 05:44:50;;;;;;;17.77;10.93;;;;;;;1.03;57.10;100738.56;10390174;28;20053;-68
2022/03/02 05:49:52;;;;;;;17.17;10.60;;;;;;;1.02;57.21;100732.53;10389725;28;20067;-68
2022/03/02 05:54:53;;;;;;;15.77;10.98;;;;;;;1.05;57.05;100729.09;10389138;28;20136;-68
2022/03/02 05:59:55;;;;;;;16.50;10.60;;;;;;;1.06;57.00;100718.78;10390164;28;20050;-67
2022/03/02 06:04:57;;;;;;;15.48;10.50;;;;;;;1.10;56.76;100717.88;10388925;28;20293;-68
2022/03/02 06:09:59;;;;;;;19.48;12.10;;;;;;;1.10;56.86;100720.44;10389385;28;20084;-67
2022/03/02 06:15:01;;;;;;;20.83;12.32;;;;;;;1.12;56.98;100721.28;10389043;28;20046;-68
2022/03/02 06:20:03;;;;;;;21.25;13.38;;;;;;;1.07;57.00;100724.78;10389298;28;20045;-67
2022/03/02 06:25:09;;;;;;;21.17;13.27;;;;;;;1.09;57.06;100721.34;10387531;28;20119;-68
2022/03/02 06:30:12;;;;;;;17.63;11.32;;;;;;;0.83;57.48;100736.13;10389132;28;20045;-68
2022/03/02 06:35:14;;;;;;;21.00;12.32;;;;;;;0.85;57.61;100726.66;10388030;28;20069;-68
2022/03/02 06:40:16;;;;;;;21.38;12.07;;;;;;;0.96;57.62;100722.28;10386775;28;20829;-67
2022/03/02 06:45:49;;;;;;;21.00;13.43;;;;;;;1.15;57.99;100721.28;10388395;28;20188;-68
2022/03/02 06:50:53;;;;;;;16.17;10.80;;;;;;;1.35;57.16;100727.09;10387322;28;20045;-68
2022/03/02 06:55:55;;;;;;;17.98;11.02;;;;;;;1.42;56.80;100727.88;10385745;28;20057;-68
2022/03/02 07:00:58;;;;;;;17.15;10.45;;;;;;;1.51;56.87;100724.34;10387568;28;20344;-68
2022/03/02 07:06:00;;;;;;;16.67;10.50;;;;;;;1.61;56.63;100725.94;10386961;28;20072;-68
2022/03/02 07:11:02;;;;;;;16.77;10.40;;;;;;;1.81;56.13;100724.88;10387064;28;20060;-67
2022/03/02 07:16:04;;;;;;;15.07;10.70;;;;;;;2.01;55.98;100722.88;10385681;28;20136;-68
2022/03/02 07:21:12;;;;;;;16.27;10.38;;;;;;;2.16;55.79;100721.84;10385647;28;20387;-67
2022/03/02 07:26:17;;;;;;;16.42;10.38;;;;;;;2.36;55.56;100721.59;10385751;28;20061;-68
2022/03/02 07:31:21;;;;;;;15.80;10.02;;;;;;;2.49;54.68;100726.56;10385240;28;20378;-68
2022/03/02 07:36:37;;;;;;;15.35;10.85;;;;;;;2.66;54.74;100726.31;10385610;28;20045;-68
2022/03/02 07:41:39;;;;;;;17.38;10.40;;;;;;;2.80;54.49;100722.66;10384159;28;20048;-68
2022/03/02 07:46:41;;;;;;;18.08;11.13;;;;;;;2.95;53.87;100722.38;10369232;28;20038;-68
2022/03/02 07:51:44;;;;;;;18.00;11.55;;;;;;;3.07;53.21;100719.59;10386191;28;20103;-68
2022/03/02 07:56:46;;;;;;;17.00;10.95;;;;;;;3.23;53.00;100722.78;10384453;28;20142;-68
2022/03/02 08:01:48;;;;;;;15.90;10.52;;;;;;;3.47;52.55;100711.16;10384836;28;20050;-68
2022/03/02 08:06:52;;;;;;;18.83;11.25;;;;;;;3.72;52.02;100715.00;10385522;28;20052;-68
2022/03/02 08:11:53;;;;;;;17.92;10.55;;;;;;;3.79;50.29;100713.97;10385998;28;20412;-68
2022/03/02 08:16:56;;;;;;;21.88;11.32;;;;;;;3.67;49.42;100716.81;10385515;28;20064;-68
2022/03/02 08:22:05;;;;;;;15.50;11.02;;;;;;;3.54;48.27;100723.94;10385017;28;20051;-68
2022/03/02 08:27:11;;;;;;;18.90;11.10;;;;;;;3.63;48.47;100715.16;10386206;28;20129;-68
2022/03/02 08:32:15;;;;;;;18.00;11.35;;;;;;;3.76;48.23;100729.56;10384075;28;20053;-68
2022/03/02 08:37:18;;;;;;;20.35;11.70;;;;;;;3.92;47.99;100733.59;10382397;28;20725;-67
2022/03/02 08:42:20;;;;;;;18.70;11.05;;;;;;;4.01;47.42;100730.81;10375212;28;20055;-68
2022/03/02 08:47:25;;;;;;;17.40;11.48;;;;;;;4.04;47.44;100725.56;10382742;28;20584;-68
2022/03/02 08:52:31;;;;;;;21.17;11.15;;;;;;;4.43;46.94;100719.53;10383686;28;20045;-68
2022/03/02 08:57:34;;;;;;;21.58;11.60;;;;;;;4.32;46.51;100716.34;10385097;28;20123;-68
2022/03/02 09:02:41;;;;;;;17.48;11.57;;;;;;;4.35;46.95;100720.59;10385578;28;20056;-68
2022/03/02 09:07:43;;;;;;;16.77;11.70;;;;;;;4.07;46.31;100712.56;10382715;28;20341;-67
2022/03/02 09:12:45;;;;;;;22.40;12.10;;;;;;;3.61;47.20;100711.75;10384722;28;20160;-68
2022/03/02 09:17:46;;;;;;;21.98;12.60;;;;;;;3.69;47.07;100709.84;10391940;28;20516;-65
2022/03/02 09:22:50;;;;;;;18.42;11.48;;;;;;;4.21;46.69;100699.34;10388533;28;20053;-64
2022/03/02 09:27:54;;;;;;;21.50;11.40;;;;;;;4.34;46.05;100709.38;10391522;28;20053;-64
2022/03/02 09:33:00;;;;;;;21.10;10.35;;;;;;;4.74;44.50;100700.72;10390911;28;20670;-65
2022/03/02 09:38:01;;;;;;;20.23;10.25;;;;;;;4.68;44.14;100694.78;10390629;28;20591;-64
2022/03/02 09:43:07;;;;;;;19.33;10.45;;;;;;;4.79;43.89;100681.56;10391400;28;20052;-64
2022/03/02 09:48:20;;;;;;;19.58;10.18;;;;;;;5.24;43.17;100670.03;10389416;28;20053;-64
2022/03/02 09:53:27;;;;;;;13.27;8.55;;;;;;;5.62;41.04;100665.53;10391024;28;20427;-64
2022/03/02 09:58:30;;;;;;;16.10;8.57;;;;;;;5.66;41.20;100664.56;10390934;28;20057;-65
2022/03/02 10:03:43;;;;;;;15.00;8.73;;;;;;;5.82;40.99;100664.09;10390784;28;20220;-64
2022/03/02 10:08:51;;;;;;;14.98;9.18;;;;;;;5.96;40.44;100655.91;10390323;28;20053;-64
2022/03/02 10:13:56;;;;;;;16.83;8.43;;;;;;;5.92;39.33;100641.31;10388899;28;20057;-65
2022/03/02 10:19:01;;;;;;;13.75;8.80;;;;;;;6.23;39.74;100642.09;10387181;28;20082;-64
2022/03/02 10:24:04;;;;;;;14.10;8.80;;;;;;;6.28;40.41;100637.66;10388442;28;20052;-64
2022/03/02 10:29:31;;;;;;;12.13;8.18;;;;;;;6.19;38.12;100633.53;10380598;28;20059;-65
2022/03/02 10:34:34;;;;;;;15.48;7.95;;;;;;;6.17;39.07;100644.88;10387309;28;20053;-65
2022/03/02 10:39:51;;;;;;;13.43;8.68;;;;;;;6.32;39.08;100649.63;10386628;28;20147;-65
2022/03/02 10:45:07;;;;;;;15.02;8.98;;;;;;;6.48;38.90;100647.41;10388757;28;20049;-65
2022/03/02 10:50:10;;;;;;;14.13;8.60;;;;;;;6.49;39.51;100646.53;10388171;28;20057;-65
2022/03/02 10:55:13;;;;;;;12.35;8.57;;;;;;;6.91;40.09;100642.50;10387997;28;20412;-65
2022/03/02 11:00:17;;;;;;;12.43;8.50;;;;;;;6.93;39.44;100641.56;10386394;28;20069;-65
2022/03/02 11:05:19;;;;;;;13.90;7.80;;;;;;;7.06;38.69;100631.59;10386267;28;20053;-64
2022/03/02 11:10:26;;;;;;;12.88;7.63;;;;;;;6.83;37.87;100637.56;10387312;28;20048;-65
2022/03/02 11:15:47;;;;;;;15.05;7.97;;;;;;;6.95;36.74;100620.69;10385701;28;20441;-65
2022/03/02 11:20:58;;;;;;;12.68;7.50;;;;;;;7.03;37.00;100610.88;10382768;28;20508;-64
2022/03/02 11:26:06;;;;;;;12.20;7.53;;;;;;;6.92;36.80;100595.66;10383457;28;20055;-65
2022/03/02 11:31:09;;;;;;;15.02;7.40;;;;;;;7.03;37.21;100590.09;10384689;28;20064;-64
2022/03/02 11:36:13;;;;;;;11.35;7.28;;;;;;;7.16;36.26;100583.56;10383758;28;20240;-64
2022/03/02 11:41:15;;;;;;;15.02;7.05;;;;;;;7.27;36.15;100571.00;10383936;28;20501;-64
2022/03/02 11:46:17;;;;;;;11.27;6.80;;;;;;;7.43;37.14;100566.06;10385074;28;20152;-64
2022/03/02 11:51:23;;;;;;;10.13;6.32;;;;;;;7.59;36.09;100562.84;10384185;28;20132;-64
2022/03/02 11:56:27;;;;;;;12.38;7.03;;;;;;;7.75;36.17;100558.75;10384819;28;20045;-64
2022/03/02 12:01:39;;;;;;;11.95;6.55;;;;;;;7.80;33.41;100543.81;10376088;28;20099;-64
2022/03/02 12:07:04;;;;;;;12.68;7.13;;;;;;;8.04;34.85;100536.78;10409935;28;20057;-64
2022/03/02 12:12:06;;;;;;;9.82;6.45;;;;;;;8.15;34.28;100532.06;10384837;28;20053;-64
2022/03/02 12:17:22;;;;;;;9.75;6.55;;;;;;;8.29;32.83;100534.94;10382024;28;20144;-64
2022/03/02 12:22:37;;;;;;;11.02;6.80;;;;;;;8.39;32.36;100524.97;10381580;28;20523;-64
2022/03/02 12:27:41;;;;;;;11.07;6.28;;;;;;;8.49;33.57;100521.06;10385396;28;20041;-63
2022/03/02 12:32:43;;;;;;;12.63;6.63;;;;;;;8.53;33.51;100509.59;10382692;28;20045;-64
2022/03/02 12:37:47;;;;;;;10.02;6.43;;;;;;;8.71;32.78;100493.19;10384455;28;20508;-64
2022/03/02 12:42:51;;;;;;;9.63;6.40;;;;;;;8.81;32.92;100484.91;10384741;28;20049;-64
2022/03/02 12:47:53;;;;;;;12.38;6.65;;;;;;;9.08;32.52;100474.16;10386467;28;20104;-64
2022/03/02 12:52:56;;;;;;;9.77;6.30;;;;;;;9.14;32.22;100459.06;10389299;28;20449;-64
2022/03/02 12:57:59;;;;;;;11.40;7.28;;;;;;;9.07;31.34;100455.06;10391458;28;20145;-63
2022/03/02 13:03:06;;;;;;;9.50;6.50;;;;;;;9.03;32.14;100465.69;10390828;28;20051;-64
2022/03/02 13:08:11;;;;;;;10.30;6.60;;;;;;;9.33;30.85;100454.72;10385808;28;20045;-64
2022/03/02 13:13:13;;;;;;;10.07;6.93;;;;;;;9.36;30.08;100448.50;10390967;28;20049;-64
2022/03/02 13:18:17;;;;;;;9.20;6.13;;;;;;;9.41;29.25;100441.28;10377459;28;20065;-64
2022/03/02 13:23:23;;;;;;;8.95;6.40;;;;;;;9.63;29.06;100437.59;10383181;28;20474;-64
2022/03/02 13:28:27;;;;;;;10.27;5.90;;;;;;;9.58;28.64;100434.34;10385825;28;20050;-64
2022/03/02 13:33:28;;;;;;;8.40;5.60;;;;;;;9.58;30.02;100439.56;10385822;28;20396;-64
2022/03/02 13:38:44;;;;;;;9.73;5.63;;;;;;;9.67;28.96;100437.50;10385935;28;20045;-64
2022/03/02 13:43:45;;;;;;;11.30;6.28;;;;;;;9.75;29.58;100424.91;10388580;28;20847;-64
2022/03/02 13:48:50;;;;;;;8.20;5.95;;;;;;;9.87;29.40;100422.53;10387791;28;20049;-64
2022/03/02 13:53:58;;;;;;;9.35;6.50;;;;;;;9.91;27.53;100418.84;10388977;28;20056;-62
2022/03/02 13:59:12;;;;;;;10.20;6.38;;;;;;;9.90;28.65;100417.16;10386082;28;20042;-62
2022/03/02 14:04:18;;;;;;;9.70;6.15;;;;;;;10.01;27.61;100411.41;10389298;28;20132;-62
2022/03/02 14:09:20;;;;;;;8.13;5.97;;;;;;;10.17;28.08;100404.50;10388154;28;20053;-62
2022/03/02 14:14:29;;;;;;;8.93;6.20;;;;;;;10.05;27.02;100394.66;10376132;28;20456;-62
2022/03/02 14:19:40;;;;;;;10.18;6.50;;;;;;;10.09;26.89;100393.59;10385725;28;20136;-63
2022/03/02 14:24:44;;;;;;;;;;;;;;;9.78;26.82;100394.25;10386759;28;20165;-62
2022/03/02 14:30:00;;;;;;;11.07;6.40;;;;;;;10.18;26.68;100388.72;10386624;28;20069;-62
2022/03/02 14:35:07;;;;;;;11.70;6.50;;;;;;;10.11;27.72;100386.50;10384000;28;20053;-62
2022/03/02 14:40:10;;;;;;;9.25;6.45;;;;;;;10.11;27.81;100376.06;10385527;28;20136;-62
2022/03/02 14:45:14;;;;;;;9.35;6.32;;;;;;;10.02;26.28;100379.13;10385638;28;20052;-62
2022/03/02 14:50:27;;;;;;;9.77;6.10;;;;;;;10.00;26.64;100378.34;10383294;28;20053;-62
2022/03/02 14:55:38;;;;;;;11.05;6.70;;;;;;;10.21;26.53;100369.44;10385480;28;20061;-61
2022/03/02 15:00:54;;;;;;;11.18;6.38;;;;;;;10.29;26.13;100380.34;10383204;28;20045;-62
2022/03/02 15:05:59;;;;;;;10.80;6.05;;;;;;;10.21;27.63;100375.50;10381813;28;20049;-62
2022/03/02 15:11:14;;;;;;;10.38;6.68;;;;;;;10.14;25.31;100376.72;10384639;28;20416;-62
2022/03/02 15:16:15;;;;;;;11.13;6.60;;;;;;;10.11;26.78;100368.22;10383760;28;20053;-62
2022/03/02 15:21:17;;;;;;;10.60;6.72;;;;;;;10.14;26.84;100365.44;10384877;28;20053;-62
2022/03/02 15:26:21;;;;;;;10.65;6.50;;;;;;;10.16;27.08;100360.97;10383656;28;20315;-62
2022/03/02 15:31:23;;;;;;;11.90;6.82;;;;;;;10.15;27.76;100354.06;10382807;28;20049;-62
2022/03/02 15:36:25;;;;;;;9.23;6.05;;;;;;;10.01;27.34;100351.31;10382163;28;20513;-62
2022/03/02 15:41:32;;;;;;;8.57;6.30;;;;;;;9.85;27.24;100348.59;10382806;28;20132;-62
2022/03/02 15:46:34;;;;;;;11.35;6.80;;;;;;;9.90;27.41;100348.38;10383553;28;20055;-62
2022/03/02 15:51:36;;;;;;;9.52;6.00;;;;;;;9.97;27.23;100345.38;10382221;28;20057;-62
2022/03/02 15:56:38;;;;;;;10.05;6.40;;;;;;;9.98;26.91;100341.00;10383421;28;20056;-63
2022/03/02 16:01:40;;;;;;;9.00;6.28;;;;;;;9.92;28.05;100349.16;10382489;28;20071;-63
2022/03/02 16:06:56;;;;;;;11.43;6.50;;;;;;;9.74;29.47;100350.94;10382364;28;20099;-63
2022/03/02 16:11:57;;;;;;;9.32;6.53;;;;;;;9.58;29.90;100350.78;10382770;28;20490;-63
2022/03/02 16:16:59;;;;;;;10.18;6.40;;;;;;;9.38;30.83;100344.88;10382248;28;20049;-63
2022/03/02 16:22:02;;;;;;;8.63;6.57;;;;;;;9.25;30.94;100351.59;10384227;28;20506;-63
2022/03/02 16:27:18;;;;;;;9.98;6.22;;;;;;;9.05;31.18;100349.91;10390761;28;20435;-63
2022/03/02 16:32:22;;;;;;;10.20;6.50;;;;;;;8.82;30.25;100347.53;10390756;28;20143;-63
2022/03/02 16:37:24;;;;;;;9.57;6.50;;;;;;;8.59;31.72;100348.56;10390144;28;20059;-63
2022/03/02 16:42:26;;;;;;;11.88;6.70;;;;;;;8.39;31.70;100347.75;10390595;28;20049;-63
2022/03/02 16:47:28;;;;;;;10.50;6.97;;;;;;;8.12;30.99;100356.78;10388969;28;20126;-64
2022/03/02 16:52:30;;;;;;;11.18;6.28;;;;;;;8.03;32.78;100347.56;10388530;28;20405;-64
2022/03/02 16:57:31;;;;;;;11.77;6.93;;;;;;;7.71;32.06;100359.31;10388984;28;20045;-65
2022/03/02 17:02:33;;;;;;;10.95;6.90;;;;;;;7.46;34.27;100357.78;10388468;28;20063;-63
2022/03/02 17:07:36;;;;;;;10.77;6.93;;;;;;;7.22;34.32;100357.03;10385844;28;20103;-62
2022/03/02 17:12:38;;;;;;;11.13;7.47;;;;;;;6.99;34.77;100364.84;10385914;28;20049;-62
2022/03/02 17:17:41;;;;;;;11.85;7.25;;;;;;;6.64;35.45;100363.56;10389848;28;20353;-63
2022/03/02 17:22:43;;;;;;;14.77;8.07;;;;;;;6.41;35.81;100367.94;10389876;28;20049;-63
2022/03/02 17:27:49;;;;;;;12.35;6.93;;;;;;;6.18;35.95;100373.91;10390468;28;20371;-62
2022/03/02 17:32:52;;;;;;;12.82;7.97;;;;;;;6.00;35.83;100372.75;10386875;28;20073;-62
2022/03/02 17:37:53;;;;;;;16.15;7.88;;;;;;;5.85;35.56;100368.09;10387717;28;20088;-62
2022/03/02 17:42:55;;;;;;;12.88;7.28;;;;;;;5.74;35.28;100380.56;10388522;28;20052;-64
2022/03/02 17:47:57;;;;;;;13.40;8.00;;;;;;;5.66;35.17;100390.34;10388017;28;20430;-63
2022/03/02 17:52:59;;;;;;;16.15;8.52;;;;;;;5.59;36.36;100391.47;10388139;28;20057;-64
2022/03/02 17:58:11;;;;;;;12.35;8.00;;;;;;;5.42;36.57;100404.97;10388424;28;20422;-63
2022/03/02 18:03:13;;;;;;;11.25;7.97;;;;;;;5.25;37.32;100406.38;10389811;28;20132;-63
2022/03/02 18:08:14;;;;;;;18.10;10.43;;;;;;;5.04;38.54;100402.69;10388703;28;20057;-63
2022/03/02 18:13:16;;;;;;;18.48;9.88;;;;;;;5.02;39.29;100399.31;10387406;28;20053;-63
2022/03/02 18:18:18;;;;;;;17.17;9.73;;;;;;;4.92;39.64;100391.84;10387831;28;20057;-63
2022/03/02 18:23:20;;;;;;;14.52;9.73;;;;;;;4.77;40.64;100394.88;10385747;28;20068;-63
2022/03/02 18:28:22;;;;;;;17.05;11.55;;;;;;;4.66;40.58;100389.97;10387025;28;20544;-63
2022/03/02 18:33:23;;;;;;;17.35;11.27;;;;;;;4.45;42.01;100396.66;10387763;28;20457;-63
2022/03/02 18:38:25;;;;;;;14.95;10.73;;;;;;;4.35;42.19;100397.75;10385865;28;20445;-63
2022/03/02 18:43:28;;;;;;;14.98;9.95;;;;;;;4.29;42.14;100390.16;10383027;28;20351;-63
2022/03/02 18:48:32;;;;;;;19.02;11.18;;;;;;;4.17;42.41;100398.25;10381317;28;20045;-62
2022/03/02 18:53:34;;;;;;;19.08;10.90;;;;;;;4.07;43.25;100394.19;10383917;28;20048;-63
2022/03/02 18:58:36;;;;;;;14.52;10.68;;;;;;;3.95;43.18;100384.16;10380987;28;20596;-62
2022/03/02 19:03:39;;;;;;;28.77;14.57;;;;;;;3.79;43.38;100394.03;10382725;28;20060;-62
2022/03/02 19:08:41;;;;;;;20.25;10.55;;;;;;;3.58;43.54;100401.44;10384650;28;20047;-63
2022/03/02 19:13:43;;;;;;;19.33;11.82;;;;;;;3.38;44.38;100394.16;10380899;28;20409;-62
2022/03/02 19:18:45;;;;;;;17.08;9.25;;;;;;;3.37;44.28;100394.22;10383946;28;20061;-67
2022/03/02 19:23:51;;;;;;;30.10;17.27;;;;;;;3.17;45.16;100406.75;10384832;28;20072;-67
2022/03/02 19:28:53;;;;;;;17.25;10.73;;;;;;;3.10;45.51;100406.00;10417072;28;20413;-67
2022/03/02 19:33:55;;;;;;;15.90;10.68;;;;;;;2.98;45.42;100407.16;10384115;28;20148;-67
2022/03/02 19:44:17;;;;;;;14.80;10.77;;;;;;;2.77;46.44;100402.41;10385930;28;20145;-68
2022/03/02 19:49:32;;;;;;;20.40;14.50;;;;;;;2.71;46.61;100405.13;10379748;28;20095;-67
2022/03/02 19:54:34;;;;;;;18.92;13.20;;;;;;;2.63;47.06;100404.44;10383649;28;20049;-67
2022/03/02 19:59:36;;;;;;;20.25;13.55;;;;;;;2.54;47.42;100406.34;10383155;28;20055;-67
2022/03/02 20:04:38;;;;;;;17.02;11.02;;;;;;;2.38;47.26;100400.63;10384387;28;20559;-67
2022/03/02 20:09:39;;;;;;;18.77;12.27;;;;;;;2.27;47.68;100399.97;10385774;28;20482;-67
2022/03/02 20:14:41;;;;;;;15.25;10.88;;;;;;;2.18;47.98;100402.72;10383994;28;20092;-67
2022/03/02 20:19:43;;;;;;;15.43;10.55;;;;;;;2.09;47.51;100415.81;10384331;28;20067;-67
2022/03/02 20:24:46;;;;;;;14.52;9.65;;;;;;;1.78;48.41;100410.31;10385979;28;20526;-67
2022/03/02 20:29:48;;;;;;;15.18;10.27;;;;;;;1.76;48.64;100411.22;10385208;28;20053;-67
2022/03/02 20:34:50;;;;;;;16.25;11.32;;;;;;;1.77;48.79;100418.91;10385101;28;20059;-67
2022/03/02 20:39:57;;;;;;;20.05;12.02;;;;;;;1.75;49.32;100415.50;10385132;28;20053;-67
2022/03/02 20:44:59;;;;;;;20.65;13.52;;;;;;;1.66;49.65;100415.69;10383954;28;20051;-67
2022/03/02 20:50:02;;;;;;;15.50;10.77;;;;;;;1.61;49.91;100414.88;10383189;28;20060;-68
2022/03/02 20:55:05;;;;;;;18.65;11.52;;;;;;;1.51;50.08;100412.47;10383231;28;20051;-67
2022/03/02 21:00:08;;;;;;;19.58;13.15;;;;;;;1.31;50.58;100411.06;10383734;28;20057;-67
2022/03/02 21:05:10;;;;;;;17.40;11.35;;;;;;;1.31;50.71;100410.19;10383060;28;20049;-67
2022/03/02 21:10:12;;;;;;;17.17;10.02;;;;;;;1.28;50.32;100405.94;10386364;28;20049;-68
2022/03/02 21:15:13;;;;;;;17.80;10.27;;;;;;;1.24;50.58;100401.69;10388048;28;20041;-68
2022/03/02 21:20:18;;;;;;;14.02;10.45;;;;;;;1.15;50.66;100404.44;10389385;28;20497;-68
2022/03/02 21:25:19;;;;;;;16.88;11.32;;;;;;;1.06;50.51;100399.38;10388431;28;20243;-68
2022/03/02 21:30:21;;;;;;;15.65;10.40;;;;;;;0.92;51.05;100409.03;10387694;28;20202;-68
2022/03/02 21:35:23;;;;;;;16.02;10.45;;;;;;;0.79;51.74;100397.16;10387433;28;20050;-68
2022/03/02 21:40:24;;;;;;;17.42;10.23;;;;;;;0.74;51.76;100391.25;10384343;28;20041;-67
2022/03/02 21:45:31;;;;;;;15.82;10.60;;;;;;;0.71;51.86;100399.00;10388387;28;20045;-68
2022/03/02 21:50:34;;;;;;;19.63;10.68;;;;;;;0.63;52.04;100405.97;10388877;28;20065;-68
2022/03/02 21:55:35;;;;;;;17.67;10.57;;;;;;;0.59;52.19;100403.47;10390121;28;20413;-67
2022/03/02 22:00:39;;;;;;;17.23;11.10;;;;;;;0.50;52.39;100400.09;10385294;28;20661;-67
2022/03/02 22:05:41;;;;;;;17.75;11.05;;;;;;;0.43;52.54;100392.47;10385207;28;20239;-67
2022/03/02 22:10:43;;;;;;;16.55;10.80;;;;;;;0.41;52.95;100401.94;10386134;28;20509;-67
2022/03/02 22:15:44;;;;;;;15.95;10.70;;;;;;;0.42;52.88;100401.91;10386981;28;20105;-67
2022/03/02 22:20:46;;;;;;;16.83;11.27;;;;;;;0.37;52.97;100401.13;10384375;28;20188;-68
2022/03/02 22:25:48;;;;;;;16.17;11.18;;;;;;;0.32;53.30;100394.34;10385395;28;20141;-67
2022/03/02 22:30:50;;;;;;;19.38;11.50;;;;;;;0.27;53.38;100393.50;10384806;28;20490;-68
2022/03/02 22:35:52;;;;;;;16.80;11.73;;;;;;;0.12;53.64;100401.38;10376450;28;20045;-67
2022/03/02 22:40:53;;;;;;;20.00;12.30;;;;;;;-0.09;54.23;100391.31;10385251;28;20509;-67
2022/03/02 22:45:55;;;;;;;25.30;14.20;;;;;;;-0.06;54.18;100392.13;10384733;28;20057;-67
2022/03/02 22:50:57;;;;;;;20.58;12.25;;;;;;;-0.13;54.04;100389.66;10385945;28;20075;-67
2022/03/02 22:55:59;;;;;;;23.08;12.77;;;;;;;-0.15;54.50;100393.94;10384214;28;20323;-67
2022/03/02 23:01:21;;;;;;;21.20;12.18;;;;;;;-0.26;55.01;100404.31;10383110;28;20527;-67
2022/03/02 23:22:26;;;;;;;19.88;12.07;;;;;;;-0.41;54.96;100391.59;10379296;28;20049;-67
2022/03/02 23:27:28;;;;;;;22.00;12.82;;;;;;;-0.43;55.18;100396.75;10381023;28;20072;-67